Aviation Digital Data Service (ADDS)

Output produced by METARs form (1421 UTC 07 December 2016)
found at http://aviationweather.gov/adds/metars/
 
KRWI 071120Z 0712/0812 30005KT P6SM SCT010 SCT250 
     FM071500 01003KT P6SM OVC250 
     FM080600 11002KT P6SM OVC050